sensor_id;sensor_type;location;lat;lon;timestamp;temperature;humidity
51811;DHT22;52468;40.116;18.296;2023-07-31T00:01:33;27.20;55.40
51811;DHT22;52468;40.116;18.296;2023-07-31T00:04:01;27.20;55.40
51811;DHT22;52468;40.116;18.296;2023-07-31T00:06:29;27.10;55.40
51811;DHT22;52468;40.116;18.296;2023-07-31T00:08:57;27.10;55.40
51811;DHT22;52468;40.116;18.296;2023-07-31T00:11:25;27.10;55.40
51811;DHT22;52468;40.116;18.296;2023-07-31T00:13:54;27.20;55.20
51811;DHT22;52468;40.116;18.296;2023-07-31T00:16:22;27.20;55.20
51811;DHT22;52468;40.116;18.296;2023-07-31T00:18:49;27.20;55.00
51811;DHT22;52468;40.116;18.296;2023-07-31T00:21:17;27.20;54.60
51811;DHT22;52468;40.116;18.296;2023-07-31T00:23:45;27.10;54.60
51811;DHT22;52468;40.116;18.296;2023-07-31T00:26:13;27.20;54.30
51811;DHT22;52468;40.116;18.296;2023-07-31T00:28:41;27.30;54.20
51811;DHT22;52468;40.116;18.296;2023-07-31T00:31:09;27.20;54.00
51811;DHT22;52468;40.116;18.296;2023-07-31T00:33:38;27.20;53.70
51811;DHT22;52468;40.116;18.296;2023-07-31T00:36:05;27.30;53.70
51811;DHT22;52468;40.116;18.296;2023-07-31T00:38:33;27.30;53.70
51811;DHT22;52468;40.116;18.296;2023-07-31T00:41:01;27.30;53.80
51811;DHT22;52468;40.116;18.296;2023-07-31T00:43:29;27.30;53.80
51811;DHT22;52468;40.116;18.296;2023-07-31T00:45:57;27.30;53.60
51811;DHT22;52468;40.116;18.296;2023-07-31T00:48:26;27.40;53.50
51811;DHT22;52468;40.116;18.296;2023-07-31T00:50:55;27.40;53.70
51811;DHT22;52468;40.116;18.296;2023-07-31T00:53:24;27.30;54.00
51811;DHT22;52468;40.116;18.296;2023-07-31T00:55:52;27.20;54.20
51811;DHT22;52468;40.116;18.296;2023-07-31T00:58:20;27.20;54.30
51811;DHT22;52468;40.116;18.296;2023-07-31T01:00:48;27.20;54.70
51811;DHT22;52468;40.116;18.296;2023-07-31T01:03:18;27.20;54.80
51811;DHT22;52468;40.116;18.296;2023-07-31T01:11:07;27.10;56.30
51811;DHT22;52468;40.116;18.296;2023-07-31T01:13:38;27.10;56.60
51811;DHT22;52468;40.116;18.296;2023-07-31T01:16:05;27.10;57.40
51811;DHT22;52468;40.116;18.296;2023-07-31T01:18:33;27.10;57.80
51811;DHT22;52468;40.116;18.296;2023-07-31T01:26:43;27.00;59.20
51811;DHT22;52468;40.116;18.296;2023-07-31T01:29:55;27.00;59.70
51811;DHT22;52468;40.116;18.296;2023-07-31T01:32:18;27.00;59.90
51811;DHT22;52468;40.116;18.296;2023-07-31T01:34:47;27.00;60.20
51811;DHT22;52468;40.116;18.296;2023-07-31T01:37:15;27.00;60.20
51811;DHT22;52468;40.116;18.296;2023-07-31T01:39:43;27.00;60.70
51811;DHT22;52468;40.116;18.296;2023-07-31T01:42:11;27.00;61.30
51811;DHT22;52468;40.116;18.296;2023-07-31T01:44:39;27.00;61.70
51811;DHT22;52468;40.116;18.296;2023-07-31T01:47:07;27.00;61.90
51811;DHT22;52468;40.116;18.296;2023-07-31T01:49:35;27.00;62.00
51811;DHT22;52468;40.116;18.296;2023-07-31T01:52:03;27.00;62.20
51811;DHT22;52468;40.116;18.296;2023-07-31T01:54:31;26.80;62.80
51811;DHT22;52468;40.116;18.296;2023-07-31T01:56:59;26.90;63.10
51811;DHT22;52468;40.116;18.296;2023-07-31T01:59:27;26.80;63.20
51811;DHT22;52468;40.116;18.296;2023-07-31T02:01:56;26.80;63.70
51811;DHT22;52468;40.116;18.296;2023-07-31T02:04:24;26.80;63.70
51811;DHT22;52468;40.116;18.296;2023-07-31T02:06:53;26.80;64.30
51811;DHT22;52468;40.116;18.296;2023-07-31T02:09:21;26.80;64.20
51811;DHT22;52468;40.116;18.296;2023-07-31T02:11:49;26.80;64.10
51811;DHT22;52468;40.116;18.296;2023-07-31T02:14:17;26.80;64.00
51811;DHT22;52468;40.116;18.296;2023-07-31T02:16:45;26.80;64.30
51811;DHT22;52468;40.116;18.296;2023-07-31T02:19:13;26.70;64.60
51811;DHT22;52468;40.116;18.296;2023-07-31T02:21:41;26.80;65.00
51811;DHT22;52468;40.116;18.296;2023-07-31T02:24:09;26.70;65.50
51811;DHT22;52468;40.116;18.296;2023-07-31T02:26:37;26.70;65.70
51811;DHT22;52468;40.116;18.296;2023-07-31T02:29:05;26.70;65.90
51811;DHT22;52468;40.116;18.296;2023-07-31T02:31:33;26.70;65.20
51811;DHT22;52468;40.116;18.296;2023-07-31T02:34:00;26.70;64.00
51811;DHT22;52468;40.116;18.296;2023-07-31T02:36:28;26.60;63.60
51811;DHT22;52468;40.116;18.296;2023-07-31T02:38:56;26.50;63.30
51811;DHT22;52468;40.116;18.296;2023-07-31T02:41:24;26.50;62.90
51811;DHT22;52468;40.116;18.296;2023-07-31T02:43:52;26.40;63.00
51811;DHT22;52468;40.116;18.296;2023-07-31T02:46:20;26.40;63.20
51811;DHT22;52468;40.116;18.296;2023-07-31T02:48:50;26.30;63.40
51811;DHT22;52468;40.116;18.296;2023-07-31T02:51:18;26.30;63.70
51811;DHT22;52468;40.116;18.296;2023-07-31T02:53:48;26.30;63.90
51811;DHT22;52468;40.116;18.296;2023-07-31T02:56:16;26.30;63.80
51811;DHT22;52468;40.116;18.296;2023-07-31T02:58:44;26.20;63.60
51811;DHT22;52468;40.116;18.296;2023-07-31T03:01:11;26.10;63.60
51811;DHT22;52468;40.116;18.296;2023-07-31T03:03:41;26.00;63.90
51811;DHT22;52468;40.116;18.296;2023-07-31T03:06:12;26.10;63.80
51811;DHT22;52468;40.116;18.296;2023-07-31T03:08:39;26.00;64.00
51811;DHT22;52468;40.116;18.296;2023-07-31T03:11:07;26.00;64.10
51811;DHT22;52468;40.116;18.296;2023-07-31T03:13:35;25.90;64.30
51811;DHT22;52468;40.116;18.296;2023-07-31T03:16:03;25.90;64.50
51811;DHT22;52468;40.116;18.296;2023-07-31T03:18:31;25.80;64.80
51811;DHT22;52468;40.116;18.296;2023-07-31T03:20:59;25.80;65.00
51811;DHT22;52468;40.116;18.296;2023-07-31T03:23:27;25.80;65.20
51811;DHT22;52468;40.116;18.296;2023-07-31T03:26:06;25.80;65.20
51811;DHT22;52468;40.116;18.296;2023-07-31T03:28:34;25.70;65.20
51811;DHT22;52468;40.116;18.296;2023-07-31T03:31:02;25.60;65.30
51811;DHT22;52468;40.116;18.296;2023-07-31T03:33:30;25.70;65.10
51811;DHT22;52468;40.116;18.296;2023-07-31T03:35:58;25.70;65.10
51811;DHT22;52468;40.116;18.296;2023-07-31T03:38:26;25.70;64.80
51811;DHT22;52468;40.116;18.296;2023-07-31T03:40:53;25.70;64.70
51811;DHT22;52468;40.116;18.296;2023-07-31T03:43:21;25.70;64.60
51811;DHT22;52468;40.116;18.296;2023-07-31T03:45:49;25.60;64.60
51811;DHT22;52468;40.116;18.296;2023-07-31T03:48:18;25.60;64.70
51811;DHT22;52468;40.116;18.296;2023-07-31T03:50:46;25.60;64.80
51811;DHT22;52468;40.116;18.296;2023-07-31T03:53:14;25.60;64.90
51811;DHT22;52468;40.116;18.296;2023-07-31T03:55:42;25.60;64.90
51811;DHT22;52468;40.116;18.296;2023-07-31T03:58:10;25.60;65.10
51811;DHT22;52468;40.116;18.296;2023-07-31T04:00:37;25.60;65.10
51811;DHT22;52468;40.116;18.296;2023-07-31T04:03:05;25.70;65.20
51811;DHT22;52468;40.116;18.296;2023-07-31T04:05:33;25.70;65.30
51811;DHT22;52468;40.116;18.296;2023-07-31T04:08:05;25.80;65.10
51811;DHT22;52468;40.116;18.296;2023-07-31T04:10:33;26.00;64.90
51811;DHT22;52468;40.116;18.296;2023-07-31T04:13:01;26.00;64.80
51811;DHT22;52468;40.116;18.296;2023-07-31T04:15:29;26.10;64.90
51811;DHT22;52468;40.116;18.296;2023-07-31T04:17:57;26.10;65.10
51811;DHT22;52468;40.116;18.296;2023-07-31T04:20:24;26.10;65.20
51811;DHT22;52468;40.116;18.296;2023-07-31T04:22:52;26.10;65.20
51811;DHT22;52468;40.116;18.296;2023-07-31T04:25:20;26.10;65.30
51811;DHT22;52468;40.116;18.296;2023-07-31T04:27:48;26.20;65.20
51811;DHT22;52468;40.116;18.296;2023-07-31T04:30:16;26.30;64.90
51811;DHT22;52468;40.116;18.296;2023-07-31T04:32:44;26.40;64.60
51811;DHT22;52468;40.116;18.296;2023-07-31T04:35:12;26.40;64.50
51811;DHT22;52468;40.116;18.296;2023-07-31T04:37:40;26.50;64.50
51811;DHT22;52468;40.116;18.296;2023-07-31T04:40:09;26.60;64.30
51811;DHT22;52468;40.116;18.296;2023-07-31T04:42:37;26.80;63.90
51811;DHT22;52468;40.116;18.296;2023-07-31T04:45:05;27.10;63.20
51811;DHT22;52468;40.116;18.296;2023-07-31T04:47:33;27.40;62.70
51811;DHT22;52468;40.116;18.296;2023-07-31T04:50:01;27.50;62.30
51811;DHT22;52468;40.116;18.296;2023-07-31T04:52:29;27.60;61.80
51811;DHT22;52468;40.116;18.296;2023-07-31T04:54:57;27.80;61.40
51811;DHT22;52468;40.116;18.296;2023-07-31T04:57:25;28.00;61.20
51811;DHT22;52468;40.116;18.296;2023-07-31T04:59:52;28.10;60.70
51811;DHT22;52468;40.116;18.296;2023-07-31T05:02:20;28.30;60.30
51811;DHT22;52468;40.116;18.296;2023-07-31T05:04:48;28.40;60.10
51811;DHT22;52468;40.116;18.296;2023-07-31T05:07:16;28.50;59.90
51811;DHT22;52468;40.116;18.296;2023-07-31T05:09:44;28.80;59.40
51811;DHT22;52468;40.116;18.296;2023-07-31T05:12:12;29.00;58.80
51811;DHT22;52468;40.116;18.296;2023-07-31T05:14:40;29.10;58.30
51811;DHT22;52468;40.116;18.296;2023-07-31T05:17:08;29.30;57.40
51811;DHT22;52468;40.116;18.296;2023-07-31T05:19:36;29.50;56.80
51811;DHT22;52468;40.116;18.296;2023-07-31T05:22:08;29.60;55.20
51811;DHT22;52468;40.116;18.296;2023-07-31T05:24:37;29.70;54.30
51811;DHT22;52468;40.116;18.296;2023-07-31T05:27:05;29.70;52.90
51811;DHT22;52468;40.116;18.296;2023-07-31T05:29:33;29.80;52.70
51811;DHT22;52468;40.116;18.296;2023-07-31T05:32:01;29.80;52.10
51811;DHT22;52468;40.116;18.296;2023-07-31T05:34:29;30.00;51.90
51811;DHT22;52468;40.116;18.296;2023-07-31T05:36:57;30.10;51.40
51811;DHT22;52468;40.116;18.296;2023-07-31T05:39:25;30.20;51.20
51811;DHT22;52468;40.116;18.296;2023-07-31T05:41:53;30.30;51.00
51811;DHT22;52468;40.116;18.296;2023-07-31T05:44:20;30.40;50.80
51811;DHT22;52468;40.116;18.296;2023-07-31T05:46:48;30.50;50.40
51811;DHT22;52468;40.116;18.296;2023-07-31T05:49:16;30.80;49.10
51811;DHT22;52468;40.116;18.296;2023-07-31T05:51:44;30.90;48.80
51811;DHT22;52468;40.116;18.296;2023-07-31T05:54:12;30.80;47.50
51811;DHT22;52468;40.116;18.296;2023-07-31T05:56:40;30.90;46.90
51811;DHT22;52468;40.116;18.296;2023-07-31T05:59:09;30.90;46.30
51811;DHT22;52468;40.116;18.296;2023-07-31T06:01:38;30.90;47.40
51811;DHT22;52468;40.116;18.296;2023-07-31T06:04:05;30.80;48.50
51811;DHT22;52468;40.116;18.296;2023-07-31T06:06:34;30.80;49.50
51811;DHT22;52468;40.116;18.296;2023-07-31T06:09:02;31.00;49.70
51811;DHT22;52468;40.116;18.296;2023-07-31T06:11:31;31.00;50.00
51811;DHT22;52468;40.116;18.296;2023-07-31T06:13:59;30.90;50.60
51811;DHT22;52468;40.116;18.296;2023-07-31T06:16:27;30.90;50.80
51811;DHT22;52468;40.116;18.296;2023-07-31T06:18:55;31.00;50.90
51811;DHT22;52468;40.116;18.296;2023-07-31T06:21:23;31.10;51.00
51811;DHT22;52468;40.116;18.296;2023-07-31T06:23:50;31.20;51.20
51811;DHT22;52468;40.116;18.296;2023-07-31T06:26:18;31.20;51.40
51811;DHT22;52468;40.116;18.296;2023-07-31T06:28:46;31.40;50.90
51811;DHT22;52468;40.116;18.296;2023-07-31T06:31:14;31.50;50.50
51811;DHT22;52468;40.116;18.296;2023-07-31T06:33:42;31.40;50.10
51811;DHT22;52468;40.116;18.296;2023-07-31T06:36:10;31.50;49.70
51811;DHT22;52468;40.116;18.296;2023-07-31T06:38:38;31.50;49.70
51811;DHT22;52468;40.116;18.296;2023-07-31T06:41:06;31.50;50.60
51811;DHT22;52468;40.116;18.296;2023-07-31T06:43:34;31.40;50.60
51811;DHT22;52468;40.116;18.296;2023-07-31T06:46:09;31.40;50.60
51811;DHT22;52468;40.116;18.296;2023-07-31T06:48:37;31.50;50.70
51811;DHT22;52468;40.116;18.296;2023-07-31T06:51:05;31.50;49.90
51811;DHT22;52468;40.116;18.296;2023-07-31T06:53:33;31.50;49.60
51811;DHT22;52468;40.116;18.296;2023-07-31T06:56:01;31.50;51.60
51811;DHT22;52468;40.116;18.296;2023-07-31T06:58:28;31.60;52.20
51811;DHT22;52468;40.116;18.296;2023-07-31T07:00:56;31.80;51.60
51811;DHT22;52468;40.116;18.296;2023-07-31T07:03:24;31.90;51.20
51811;DHT22;52468;40.116;18.296;2023-07-31T07:05:52;32.10;50.60
51811;DHT22;52468;40.116;18.296;2023-07-31T07:08:20;32.00;50.40
51811;DHT22;52468;40.116;18.296;2023-07-31T07:10:48;32.00;51.30
51811;DHT22;52468;40.116;18.296;2023-07-31T07:13:16;32.10;51.30
51811;DHT22;52468;40.116;18.296;2023-07-31T07:15:49;32.10;51.20
51811;DHT22;52468;40.116;18.296;2023-07-31T07:18:18;32.20;51.70
51811;DHT22;52468;40.116;18.296;2023-07-31T07:20:47;32.10;52.20
51811;DHT22;52468;40.116;18.296;2023-07-31T07:23:15;32.10;52.10
51811;DHT22;52468;40.116;18.296;2023-07-31T07:25:44;32.10;51.20
51811;DHT22;52468;40.116;18.296;2023-07-31T07:28:13;32.30;50.70
51811;DHT22;52468;40.116;18.296;2023-07-31T07:30:41;32.40;51.00
51811;DHT22;52468;40.116;18.296;2023-07-31T07:33:09;32.60;50.50
51811;DHT22;52468;40.116;18.296;2023-07-31T07:35:36;32.80;50.10
51811;DHT22;52468;40.116;18.296;2023-07-31T07:38:04;32.90;49.80
51811;DHT22;52468;40.116;18.296;2023-07-31T07:40:32;32.90;49.40
51811;DHT22;52468;40.116;18.296;2023-07-31T07:43:00;32.80;49.80
51811;DHT22;52468;40.116;18.296;2023-07-31T07:45:28;32.90;50.00
51811;DHT22;52468;40.116;18.296;2023-07-31T07:47:58;33.10;49.40
51811;DHT22;52468;40.116;18.296;2023-07-31T07:50:26;33.10;49.30
51811;DHT22;52468;40.116;18.296;2023-07-31T07:52:54;33.10;49.50
51811;DHT22;52468;40.116;18.296;2023-07-31T07:55:22;32.90;48.80
51811;DHT22;52468;40.116;18.296;2023-07-31T07:57:50;32.80;48.10
51811;DHT22;52468;40.116;18.296;2023-07-31T08:00:18;32.90;47.90
51811;DHT22;52468;40.116;18.296;2023-07-31T08:02:46;33.00;47.90
51811;DHT22;52468;40.116;18.296;2023-07-31T08:05:14;33.30;47.60
51811;DHT22;52468;40.116;18.296;2023-07-31T08:07:42;33.20;47.00
51811;DHT22;52468;40.116;18.296;2023-07-31T08:10:10;33.10;47.20
51811;DHT22;52468;40.116;18.296;2023-07-31T08:12:38;33.10;47.80
51811;DHT22;52468;40.116;18.296;2023-07-31T08:15:06;33.20;47.90
51811;DHT22;52468;40.116;18.296;2023-07-31T08:17:34;33.20;47.90
51811;DHT22;52468;40.116;18.296;2023-07-31T08:20:02;33.30;47.70
51811;DHT22;52468;40.116;18.296;2023-07-31T08:22:31;33.30;47.60
51811;DHT22;52468;40.116;18.296;2023-07-31T08:24:59;33.60;47.30
51811;DHT22;52468;40.116;18.296;2023-07-31T08:27:26;34.00;46.60
51811;DHT22;52468;40.116;18.296;2023-07-31T08:29:54;34.20;46.10
51811;DHT22;52468;40.116;18.296;2023-07-31T08:32:22;34.20;45.70
51811;DHT22;52468;40.116;18.296;2023-07-31T08:34:50;34.10;45.70
51811;DHT22;52468;40.116;18.296;2023-07-31T08:37:19;34.20;45.70
51811;DHT22;52468;40.116;18.296;2023-07-31T08:39:46;34.30;45.90
51811;DHT22;52468;40.116;18.296;2023-07-31T08:42:14;34.10;46.30
51811;DHT22;52468;40.116;18.296;2023-07-31T08:44:43;34.00;46.50
51811;DHT22;52468;40.116;18.296;2023-07-31T08:47:12;33.70;46.70
51811;DHT22;52468;40.116;18.296;2023-07-31T08:49:41;33.80;46.70
51811;DHT22;52468;40.116;18.296;2023-07-31T08:52:10;33.70;46.50
51811;DHT22;52468;40.116;18.296;2023-07-31T08:54:38;33.60;46.80
51811;DHT22;52468;40.116;18.296;2023-07-31T08:57:07;33.90;46.10
51811;DHT22;52468;40.116;18.296;2023-07-31T08:59:36;33.90;44.90
51811;DHT22;52468;40.116;18.296;2023-07-31T09:02:07;33.90;43.70
51811;DHT22;52468;40.116;18.296;2023-07-31T09:04:35;33.90;43.30
51811;DHT22;52468;40.116;18.296;2023-07-31T09:07:04;34.00;42.80
51811;DHT22;52468;40.116;18.296;2023-07-31T09:09:32;34.10;42.50
51811;DHT22;52468;40.116;18.296;2023-07-31T09:12:00;34.30;42.10
51811;DHT22;52468;40.116;18.296;2023-07-31T09:14:29;34.60;41.10
51811;DHT22;52468;40.116;18.296;2023-07-31T09:16:58;34.70;39.00
51811;DHT22;52468;40.116;18.296;2023-07-31T09:19:33;34.80;38.20
51811;DHT22;52468;40.116;18.296;2023-07-31T09:22:05;34.60;38.50
51811;DHT22;52468;40.116;18.296;2023-07-31T09:24:34;34.50;39.00
51811;DHT22;52468;40.116;18.296;2023-07-31T09:27:02;34.50;39.80
51811;DHT22;52468;40.116;18.296;2023-07-31T09:29:30;34.80;39.40
51811;DHT22;52468;40.116;18.296;2023-07-31T09:31:58;34.90;39.10
51811;DHT22;52468;40.116;18.296;2023-07-31T09:34:38;34.90;39.20
51811;DHT22;52468;40.116;18.296;2023-07-31T09:37:11;34.80;39.30
51811;DHT22;52468;40.116;18.296;2023-07-31T09:39:46;34.80;38.40
51811;DHT22;52468;40.116;18.296;2023-07-31T09:42:24;34.70;38.70
51811;DHT22;52468;40.116;18.296;2023-07-31T09:44:52;34.80;39.30
51811;DHT22;52468;40.116;18.296;2023-07-31T09:47:22;34.50;39.10
51811;DHT22;52468;40.116;18.296;2023-07-31T09:49:53;34.70;38.10
51811;DHT22;52468;40.116;18.296;2023-07-31T09:52:21;34.80;37.80
51811;DHT22;52468;40.116;18.296;2023-07-31T09:54:50;34.80;37.30
51811;DHT22;52468;40.116;18.296;2023-07-31T09:57:22;34.80;37.20
51811;DHT22;52468;40.116;18.296;2023-07-31T09:59:51;34.80;37.20
51811;DHT22;52468;40.116;18.296;2023-07-31T10:02:23;34.80;36.80
51811;DHT22;52468;40.116;18.296;2023-07-31T10:04:51;34.90;36.60
51811;DHT22;52468;40.116;18.296;2023-07-31T10:07:22;35.00;36.60
51811;DHT22;52468;40.116;18.296;2023-07-31T10:09:53;35.00;36.10
51811;DHT22;52468;40.116;18.296;2023-07-31T10:12:26;35.00;35.60
51811;DHT22;52468;40.116;18.296;2023-07-31T10:14:55;35.00;35.60
51811;DHT22;52468;40.116;18.296;2023-07-31T10:17:24;34.90;35.10
51811;DHT22;52468;40.116;18.296;2023-07-31T10:19:53;34.90;35.40
51811;DHT22;52468;40.116;18.296;2023-07-31T10:22:21;35.10;35.30
51811;DHT22;52468;40.116;18.296;2023-07-31T10:24:50;35.40;34.70
51811;DHT22;52468;40.116;18.296;2023-07-31T10:27:20;35.30;35.40
51811;DHT22;52468;40.116;18.296;2023-07-31T10:29:48;35.20;35.50
51811;DHT22;52468;40.116;18.296;2023-07-31T10:32:17;35.40;34.80
51811;DHT22;52468;40.116;18.296;2023-07-31T10:34:46;35.70;34.40
51811;DHT22;52468;40.116;18.296;2023-07-31T10:37:29;36.00;34.50
51811;DHT22;52468;40.116;18.296;2023-07-31T10:40:05;36.00;34.70
51811;DHT22;52468;40.116;18.296;2023-07-31T10:42:38;35.80;34.70
51811;DHT22;52468;40.116;18.296;2023-07-31T10:45:12;35.80;34.80
51811;DHT22;52468;40.116;18.296;2023-07-31T10:47:44;35.90;33.80
51811;DHT22;52468;40.116;18.296;2023-07-31T10:50:23;36.00;33.50
51811;DHT22;52468;40.116;18.296;2023-07-31T10:52:53;35.80;33.70
51811;DHT22;52468;40.116;18.296;2023-07-31T10:55:32;35.80;33.60
51811;DHT22;52468;40.116;18.296;2023-07-31T10:58:20;36.00;34.30
51811;DHT22;52468;40.116;18.296;2023-07-31T11:00:58;36.10;34.60
51811;DHT22;52468;40.116;18.296;2023-07-31T11:03:40;36.50;34.60
51811;DHT22;52468;40.116;18.296;2023-07-31T11:06:09;36.60;35.50
51811;DHT22;52468;40.116;18.296;2023-07-31T11:08:45;36.50;36.10
51811;DHT22;52468;40.116;18.296;2023-07-31T11:11:15;36.00;36.10
51811;DHT22;52468;40.116;18.296;2023-07-31T11:13:45;35.90;35.70
51811;DHT22;52468;40.116;18.296;2023-07-31T11:16:14;36.00;32.50
51811;DHT22;52468;40.116;18.296;2023-07-31T11:18:44;36.00;34.70
51811;DHT22;52468;40.116;18.296;2023-07-31T11:21:13;36.20;34.60
51811;DHT22;52468;40.116;18.296;2023-07-31T11:23:45;36.20;34.00
51811;DHT22;52468;40.116;18.296;2023-07-31T11:26:14;36.30;35.10
51811;DHT22;52468;40.116;18.296;2023-07-31T11:28:42;36.50;34.60
51811;DHT22;52468;40.116;18.296;2023-07-31T11:31:10;36.50;34.00
51811;DHT22;52468;40.116;18.296;2023-07-31T11:33:38;36.60;34.40
51811;DHT22;52468;40.116;18.296;2023-07-31T11:36:13;36.50;32.90
51811;DHT22;52468;40.116;18.296;2023-07-31T11:38:42;36.40;33.20
51811;DHT22;52468;40.116;18.296;2023-07-31T11:41:09;36.40;33.40
51811;DHT22;52468;40.116;18.296;2023-07-31T11:43:37;36.30;32.60
51811;DHT22;52468;40.116;18.296;2023-07-31T11:46:05;36.30;31.60
51811;DHT22;52468;40.116;18.296;2023-07-31T11:48:35;36.50;29.80
51811;DHT22;52468;40.116;18.296;2023-07-31T11:51:06;36.50;29.90
51811;DHT22;52468;40.116;18.296;2023-07-31T11:56:13;36.80;30.50
51811;DHT22;52468;40.116;18.296;2023-07-31T11:58:42;36.60;29.30
51811;DHT22;52468;40.116;18.296;2023-07-31T12:01:13;36.50;30.90
51811;DHT22;52468;40.116;18.296;2023-07-31T12:03:42;36.50;32.20
51811;DHT22;52468;40.116;18.296;2023-07-31T12:06:10;36.60;30.90
51811;DHT22;52468;40.116;18.296;2023-07-31T12:08:38;36.80;31.30
51811;DHT22;52468;40.116;18.296;2023-07-31T12:11:08;36.90;31.80
51811;DHT22;52468;40.116;18.296;2023-07-31T12:13:39;37.00;30.00
51811;DHT22;52468;40.116;18.296;2023-07-31T12:16:07;36.70;29.80
51811;DHT22;52468;40.116;18.296;2023-07-31T12:18:37;36.80;31.20
51811;DHT22;52468;40.116;18.296;2023-07-31T12:21:07;37.00;31.70
51811;DHT22;52468;40.116;18.296;2023-07-31T12:23:36;37.00;31.10
51811;DHT22;52468;40.116;18.296;2023-07-31T12:26:13;36.90;31.90
51811;DHT22;52468;40.116;18.296;2023-07-31T12:31:11;36.80;31.80
51811;DHT22;52468;40.116;18.296;2023-07-31T12:33:40;37.00;31.70
51811;DHT22;52468;40.116;18.296;2023-07-31T12:36:13;37.10;31.30
51811;DHT22;52468;40.116;18.296;2023-07-31T12:38:42;37.20;30.60
51811;DHT22;52468;40.116;18.296;2023-07-31T12:41:10;37.00;32.90
51811;DHT22;52468;40.116;18.296;2023-07-31T12:43:40;37.00;31.50
51811;DHT22;52468;40.116;18.296;2023-07-31T12:46:08;36.90;32.20
51811;DHT22;52468;40.116;18.296;2023-07-31T12:48:40;36.90;31.40
51811;DHT22;52468;40.116;18.296;2023-07-31T12:51:08;37.10;30.90
51811;DHT22;52468;40.116;18.296;2023-07-31T12:53:36;37.30;31.00
51811;DHT22;52468;40.116;18.296;2023-07-31T12:56:04;37.70;30.90
51811;DHT22;52468;40.116;18.296;2023-07-31T12:58:32;37.70;31.70
51811;DHT22;52468;40.116;18.296;2023-07-31T13:01:00;37.80;32.60
51811;DHT22;52468;40.116;18.296;2023-07-31T13:03:29;37.80;33.50
51811;DHT22;52468;40.116;18.296;2023-07-31T13:05:57;37.80;32.40
51811;DHT22;52468;40.116;18.296;2023-07-31T13:08:25;38.10;31.90
51811;DHT22;52468;40.116;18.296;2023-07-31T13:10:53;38.60;31.90
51811;DHT22;52468;40.116;18.296;2023-07-31T13:13:21;39.10;31.40
51811;DHT22;52468;40.116;18.296;2023-07-31T13:15:49;39.40;30.50
51811;DHT22;52468;40.116;18.296;2023-07-31T13:18:17;39.90;29.70
51811;DHT22;52468;40.116;18.296;2023-07-31T13:20:45;40.80;29.00
51811;DHT22;52468;40.116;18.296;2023-07-31T13:23:13;41.60;26.50
51811;DHT22;52468;40.116;18.296;2023-07-31T13:25:41;41.90;26.10
51811;DHT22;52468;40.116;18.296;2023-07-31T13:28:09;42.50;25.20
51811;DHT22;52468;40.116;18.296;2023-07-31T13:30:37;42.90;25.10
51811;DHT22;52468;40.116;18.296;2023-07-31T13:33:05;43.10;25.00
51811;DHT22;52468;40.116;18.296;2023-07-31T13:35:33;43.50;25.10
51811;DHT22;52468;40.116;18.296;2023-07-31T13:38:01;44.00;24.70
51811;DHT22;52468;40.116;18.296;2023-07-31T13:40:29;43.90;24.70
51811;DHT22;52468;40.116;18.296;2023-07-31T13:42:57;43.50;24.80
51811;DHT22;52468;40.116;18.296;2023-07-31T13:45:25;43.10;24.70
51811;DHT22;52468;40.116;18.296;2023-07-31T13:47:53;43.20;24.80
51811;DHT22;52468;40.116;18.296;2023-07-31T13:50:21;43.00;25.00
51811;DHT22;52468;40.116;18.296;2023-07-31T13:52:50;43.10;24.90
51811;DHT22;52468;40.116;18.296;2023-07-31T13:55:18;42.80;25.20
51811;DHT22;52468;40.116;18.296;2023-07-31T13:57:46;43.00;25.10
51811;DHT22;52468;40.116;18.296;2023-07-31T14:00:14;43.00;25.10
51811;DHT22;52468;40.116;18.296;2023-07-31T14:02:42;43.00;25.00
51811;DHT22;52468;40.116;18.296;2023-07-31T14:05:10;42.50;25.50
51811;DHT22;52468;40.116;18.296;2023-07-31T14:07:38;43.10;25.00
51811;DHT22;52468;40.116;18.296;2023-07-31T14:10:06;43.10;25.00
51811;DHT22;52468;40.116;18.296;2023-07-31T14:12:34;43.10;24.20
51811;DHT22;52468;40.116;18.296;2023-07-31T14:15:07;42.90;24.70
51811;DHT22;52468;40.116;18.296;2023-07-31T14:17:35;43.50;24.40
51811;DHT22;52468;40.116;18.296;2023-07-31T14:20:03;43.70;24.10
51811;DHT22;52468;40.116;18.296;2023-07-31T14:22:31;43.10;24.60
51811;DHT22;52468;40.116;18.296;2023-07-31T14:25:01;43.00;24.40
51811;DHT22;52468;40.116;18.296;2023-07-31T14:27:29;43.30;24.60
51811;DHT22;52468;40.116;18.296;2023-07-31T14:29:57;43.40;24.40
51811;DHT22;52468;40.116;18.296;2023-07-31T14:32:25;42.60;25.20
51811;DHT22;52468;40.116;18.296;2023-07-31T14:34:53;42.60;25.50
51811;DHT22;52468;40.116;18.296;2023-07-31T14:37:22;43.20;24.40
51811;DHT22;52468;40.116;18.296;2023-07-31T14:39:50;43.00;24.80
51811;DHT22;52468;40.116;18.296;2023-07-31T14:42:18;43.00;25.00
51811;DHT22;52468;40.116;18.296;2023-07-31T14:44:47;43.00;25.10
51811;DHT22;52468;40.116;18.296;2023-07-31T14:47:15;42.80;24.90
51811;DHT22;52468;40.116;18.296;2023-07-31T14:49:43;42.90;25.00
51811;DHT22;52468;40.116;18.296;2023-07-31T14:52:10;43.20;24.80
51811;DHT22;52468;40.116;18.296;2023-07-31T14:54:38;43.80;24.10
51811;DHT22;52468;40.116;18.296;2023-07-31T14:57:06;43.90;23.70
51811;DHT22;52468;40.116;18.296;2023-07-31T14:59:34;43.40;24.20
51811;DHT22;52468;40.116;18.296;2023-07-31T15:02:02;43.10;24.40
51811;DHT22;52468;40.116;18.296;2023-07-31T15:04:30;43.50;23.90
51811;DHT22;52468;40.116;18.296;2023-07-31T15:06:58;43.70;23.70
51811;DHT22;52468;40.116;18.296;2023-07-31T15:09:26;43.80;23.80
51811;DHT22;52468;40.116;18.296;2023-07-31T15:11:56;43.90;23.30
51811;DHT22;52468;40.116;18.296;2023-07-31T15:14:24;43.70;23.40
51811;DHT22;52468;40.116;18.296;2023-07-31T15:16:52;43.30;23.80
51811;DHT22;52468;40.116;18.296;2023-07-31T15:19:20;43.80;23.40
51811;DHT22;52468;40.116;18.296;2023-07-31T15:21:48;43.80;22.80
51811;DHT22;52468;40.116;18.296;2023-07-31T15:24:16;43.70;23.00
51811;DHT22;52468;40.116;18.296;2023-07-31T15:26:44;43.50;23.00
51811;DHT22;52468;40.116;18.296;2023-07-31T15:29:12;43.60;22.90
51811;DHT22;52468;40.116;18.296;2023-07-31T15:31:45;43.80;23.20
51811;DHT22;52468;40.116;18.296;2023-07-31T15:34:15;43.50;22.90
51811;DHT22;52468;40.116;18.296;2023-07-31T15:36:43;42.60;23.60
51811;DHT22;52468;40.116;18.296;2023-07-31T15:39:10;42.90;23.70
51811;DHT22;52468;40.116;18.296;2023-07-31T15:41:39;43.20;23.50